sensor_id;sensor_type;location;lat;lon;timestamp;P1;durP1;ratioP1;P2;durP2;ratioP2
23730;SDS011;12046;44.702;10.622;2024-03-23T00:53:58;4.68;;;4.15;;
23730;SDS011;12046;44.702;10.622;2024-03-23T00:56:24;4.72;;;4.32;;
23730;SDS011;12046;44.702;10.622;2024-03-23T00:58:50;4.82;;;4.32;;
23730;SDS011;12046;44.702;10.622;2024-03-23T01:01:16;4.53;;;4.05;;
23730;SDS011;12046;44.702;10.622;2024-03-23T01:03:42;4.50;;;4.10;;
23730;SDS011;12046;44.702;10.622;2024-03-23T01:06:08;4.85;;;4.40;;
23730;SDS011;12046;44.702;10.622;2024-03-23T01:08:34;4.93;;;4.50;;
23730;SDS011;12046;44.702;10.622;2024-03-23T01:11:00;5.72;;;5.13;;
23730;SDS011;12046;44.702;10.622;2024-03-23T01:13:26;5.20;;;4.70;;
23730;SDS011;12046;44.702;10.622;2024-03-23T01:15:53;5.20;;;4.70;;
23730;SDS011;12046;44.702;10.622;2024-03-23T01:18:20;5.95;;;5.07;;
23730;SDS011;12046;44.702;10.622;2024-03-23T01:20:46;5.63;;;5.07;;
23730;SDS011;12046;44.702;10.622;2024-03-23T01:23:12;4.60;;;4.20;;
23730;SDS011;12046;44.702;10.622;2024-03-23T01:25:37;5.15;;;4.65;;
23730;SDS011;12046;44.702;10.622;2024-03-23T01:28:03;6.60;;;5.00;;
23730;SDS011;12046;44.702;10.622;2024-03-23T01:30:30;4.63;;;4.18;;
23730;SDS011;12046;44.702;10.622;2024-03-23T01:32:56;5.47;;;4.90;;
23730;SDS011;12046;44.702;10.622;2024-03-23T01:35:22;5.15;;;4.65;;
23730;SDS011;12046;44.702;10.622;2024-03-23T01:37:48;5.80;;;5.20;;
23730;SDS011;12046;44.702;10.622;2024-03-23T01:40:15;5.38;;;4.88;;
23730;SDS011;12046;44.702;10.622;2024-03-23T01:42:42;6.38;;;4.72;;
23730;SDS011;12046;44.702;10.622;2024-03-23T01:45:07;5.28;;;4.75;;
23730;SDS011;12046;44.702;10.622;2024-03-23T01:47:34;6.32;;;5.45;;
23730;SDS011;12046;44.702;10.622;2024-03-23T01:50:00;6.00;;;5.13;;
23730;SDS011;12046;44.702;10.622;2024-03-23T01:52:26;6.13;;;5.35;;
23730;SDS011;12046;44.702;10.622;2024-03-23T01:54:53;6.55;;;5.68;;
23730;SDS011;12046;44.702;10.622;2024-03-23T01:57:19;8.18;;;5.90;;
23730;SDS011;12046;44.702;10.622;2024-03-23T01:59:46;7.25;;;5.90;;
23730;SDS011;12046;44.702;10.622;2024-03-23T02:02:12;6.35;;;5.68;;
23730;SDS011;12046;44.702;10.622;2024-03-23T02:04:38;6.88;;;5.75;;
23730;SDS011;12046;44.702;10.622;2024-03-23T02:07:04;6.75;;;6.05;;
23730;SDS011;12046;44.702;10.622;2024-03-23T02:09:31;5.45;;;4.85;;
23730;SDS011;12046;44.702;10.622;2024-03-23T02:11:57;5.75;;;4.85;;
23730;SDS011;12046;44.702;10.622;2024-03-23T02:14:23;6.15;;;4.93;;
23730;SDS011;12046;44.702;10.622;2024-03-23T02:16:49;7.38;;;5.35;;
23730;SDS011;12046;44.702;10.622;2024-03-23T02:19:14;6.25;;;5.45;;
23730;SDS011;12046;44.702;10.622;2024-03-23T02:21:40;6.32;;;5.18;;
23730;SDS011;12046;44.702;10.622;2024-03-23T02:24:06;5.60;;;5.00;;
23730;SDS011;12046;44.702;10.622;2024-03-23T02:26:32;5.70;;;5.20;;
23730;SDS011;12046;44.702;10.622;2024-03-23T02:28:57;6.03;;;5.43;;
23730;SDS011;12046;44.702;10.622;2024-03-23T02:31:23;7.32;;;5.55;;
23730;SDS011;12046;44.702;10.622;2024-03-23T02:33:49;6.22;;;5.63;;
23730;SDS011;12046;44.702;10.622;2024-03-23T02:36:14;5.93;;;5.32;;
23730;SDS011;12046;44.702;10.622;2024-03-23T02:38:40;5.97;;;5.15;;
23730;SDS011;12046;44.702;10.622;2024-03-23T02:41:06;5.88;;;5.10;;
23730;SDS011;12046;44.702;10.622;2024-03-23T02:43:32;4.53;;;4.13;;
23730;SDS011;12046;44.702;10.622;2024-03-23T02:45:57;3.90;;;3.60;;
23730;SDS011;12046;44.702;10.622;2024-03-23T02:48:23;4.22;;;3.83;;
23730;SDS011;12046;44.702;10.622;2024-03-23T02:50:49;4.38;;;3.97;;
23730;SDS011;12046;44.702;10.622;2024-03-23T02:53:16;5.32;;;4.75;;
23730;SDS011;12046;44.702;10.622;2024-03-23T02:55:41;5.57;;;4.82;;
23730;SDS011;12046;44.702;10.622;2024-03-23T02:58:07;6.43;;;5.40;;
23730;SDS011;12046;44.702;10.622;2024-03-23T03:00:32;6.38;;;5.68;;
23730;SDS011;12046;44.702;10.622;2024-03-23T03:02:58;6.03;;;5.40;;
23730;SDS011;12046;44.702;10.622;2024-03-23T03:05:24;7.07;;;6.22;;
23730;SDS011;12046;44.702;10.622;2024-03-23T03:07:50;6.72;;;5.65;;
23730;SDS011;12046;44.702;10.622;2024-03-23T03:10:16;6.55;;;5.88;;
23730;SDS011;12046;44.702;10.622;2024-03-23T03:12:41;6.40;;;5.80;;
23730;SDS011;12046;44.702;10.622;2024-03-23T03:15:07;6.43;;;5.63;;
23730;SDS011;12046;44.702;10.622;2024-03-23T03:17:33;6.50;;;5.78;;
23730;SDS011;12046;44.702;10.622;2024-03-23T03:19:59;9.75;;;6.20;;
23730;SDS011;12046;44.702;10.622;2024-03-23T03:22:25;6.50;;;5.90;;
23730;SDS011;12046;44.702;10.622;2024-03-23T03:24:51;6.80;;;6.10;;
23730;SDS011;12046;44.702;10.622;2024-03-23T03:27:17;7.78;;;6.43;;
23730;SDS011;12046;44.702;10.622;2024-03-23T03:29:43;6.43;;;5.78;;
23730;SDS011;12046;44.702;10.622;2024-03-23T03:32:08;6.85;;;6.25;;
23730;SDS011;12046;44.702;10.622;2024-03-23T03:34:34;6.97;;;5.75;;
23730;SDS011;12046;44.702;10.622;2024-03-23T03:37:00;6.55;;;5.85;;
23730;SDS011;12046;44.702;10.622;2024-03-23T03:39:26;6.72;;;6.03;;
23730;SDS011;12046;44.702;10.622;2024-03-23T03:41:51;6.68;;;5.93;;
23730;SDS011;12046;44.702;10.622;2024-03-23T03:44:17;6.20;;;5.55;;
23730;SDS011;12046;44.702;10.622;2024-03-23T03:46:43;5.32;;;4.82;;
23730;SDS011;12046;44.702;10.622;2024-03-23T03:49:09;5.40;;;4.90;;
23730;SDS011;12046;44.702;10.622;2024-03-23T03:51:34;5.38;;;4.88;;
23730;SDS011;12046;44.702;10.622;2024-03-23T03:54:00;4.93;;;4.43;;
23730;SDS011;12046;44.702;10.622;2024-03-23T03:56:26;4.63;;;4.22;;
23730;SDS011;12046;44.702;10.622;2024-03-23T03:58:53;4.93;;;4.43;;
23730;SDS011;12046;44.702;10.622;2024-03-23T04:01:19;5.65;;;4.57;;
23730;SDS011;12046;44.702;10.622;2024-03-23T04:03:45;7.63;;;5.32;;
23730;SDS011;12046;44.702;10.622;2024-03-23T04:06:12;6.32;;;5.72;;
23730;SDS011;12046;44.702;10.622;2024-03-23T04:08:37;5.65;;;5.15;;
23730;SDS011;12046;44.702;10.622;2024-03-23T04:11:04;5.43;;;4.60;;
23730;SDS011;12046;44.702;10.622;2024-03-23T04:13:30;4.70;;;4.30;;
23730;SDS011;12046;44.702;10.622;2024-03-23T04:15:56;4.70;;;4.30;;
23730;SDS011;12046;44.702;10.622;2024-03-23T04:18:22;5.05;;;4.47;;
23730;SDS011;12046;44.702;10.622;2024-03-23T04:20:48;5.60;;;4.88;;
23730;SDS011;12046;44.702;10.622;2024-03-23T04:23:14;4.47;;;4.07;;
23730;SDS011;12046;44.702;10.622;2024-03-23T04:25:40;4.53;;;4.13;;
23730;SDS011;12046;44.702;10.622;2024-03-23T04:28:06;4.78;;;4.35;;
23730;SDS011;12046;44.702;10.622;2024-03-23T04:30:32;4.93;;;4.43;;
23730;SDS011;12046;44.702;10.622;2024-03-23T04:32:58;5.13;;;4.63;;
23730;SDS011;12046;44.702;10.622;2024-03-23T04:35:26;6.07;;;5.47;;
23730;SDS011;12046;44.702;10.622;2024-03-23T04:37:55;6.75;;;6.15;;
23730;SDS011;12046;44.702;10.622;2024-03-23T04:40:21;6.82;;;6.13;;
23730;SDS011;12046;44.702;10.622;2024-03-23T04:42:47;6.57;;;5.78;;
23730;SDS011;12046;44.702;10.622;2024-03-23T04:45:13;6.68;;;5.90;;
23730;SDS011;12046;44.702;10.622;2024-03-23T04:47:38;6.05;;;5.45;;
23730;SDS011;12046;44.702;10.622;2024-03-23T04:50:04;6.20;;;5.60;;
23730;SDS011;12046;44.702;10.622;2024-03-23T04:52:30;5.63;;;5.13;;
23730;SDS011;12046;44.702;10.622;2024-03-23T04:54:56;5.20;;;4.70;;
23730;SDS011;12046;44.702;10.622;2024-03-23T04:57:22;4.68;;;4.28;;
23730;SDS011;12046;44.702;10.622;2024-03-23T04:59:48;4.93;;;4.43;;
23730;SDS011;12046;44.702;10.622;2024-03-23T05:02:14;4.95;;;4.30;;
23730;SDS011;12046;44.702;10.622;2024-03-23T05:04:40;6.10;;;4.53;;
23730;SDS011;12046;44.702;10.622;2024-03-23T05:07:08;4.40;;;4.00;;
23730;SDS011;12046;44.702;10.622;2024-03-23T05:09:34;4.07;;;3.72;;
23730;SDS011;12046;44.702;10.622;2024-03-23T05:12:00;4.35;;;3.95;;
23730;SDS011;12046;44.702;10.622;2024-03-23T05:14:26;3.95;;;3.65;;
23730;SDS011;12046;44.702;10.622;2024-03-23T05:16:55;4.65;;;4.25;;
23730;SDS011;12046;44.702;10.622;2024-03-23T05:19:21;6.20;;;4.80;;
23730;SDS011;12046;44.702;10.622;2024-03-23T05:21:47;5.18;;;4.45;;
23730;SDS011;12046;44.702;10.622;2024-03-23T05:24:13;5.07;;;4.57;;
23730;SDS011;12046;44.702;10.622;2024-03-23T05:26:39;5.78;;;5.00;;
23730;SDS011;12046;44.702;10.622;2024-03-23T05:29:05;4.35;;;3.90;;
23730;SDS011;12046;44.702;10.622;2024-03-23T05:31:32;5.65;;;4.85;;
23730;SDS011;12046;44.702;10.622;2024-03-23T05:33:58;5.57;;;4.97;;
23730;SDS011;12046;44.702;10.622;2024-03-23T05:36:24;5.90;;;5.30;;
23730;SDS011;12046;44.702;10.622;2024-03-23T05:38:50;5.53;;;5.03;;
23730;SDS011;12046;44.702;10.622;2024-03-23T05:41:15;5.10;;;4.60;;
23730;SDS011;12046;44.702;10.622;2024-03-23T05:43:41;6.45;;;5.72;;
23730;SDS011;12046;44.702;10.622;2024-03-23T05:46:07;6.18;;;5.60;;
23730;SDS011;12046;44.702;10.622;2024-03-23T05:48:34;5.80;;;5.25;;
23730;SDS011;12046;44.702;10.622;2024-03-23T05:51:00;5.68;;;5.18;;
23730;SDS011;12046;44.702;10.622;2024-03-23T05:53:27;5.82;;;5.10;;
23730;SDS011;12046;44.702;10.622;2024-03-23T05:56:00;6.22;;;5.63;;
23730;SDS011;12046;44.702;10.622;2024-03-23T05:58:26;7.15;;;5.85;;
23730;SDS011;12046;44.702;10.622;2024-03-23T06:00:56;6.32;;;5.65;;
23730;SDS011;12046;44.702;10.622;2024-03-23T06:03:22;5.32;;;4.80;;
23730;SDS011;12046;44.702;10.622;2024-03-23T06:05:48;5.55;;;5.05;;
23730;SDS011;12046;44.702;10.622;2024-03-23T06:08:14;6.45;;;5.82;;
23730;SDS011;12046;44.702;10.622;2024-03-23T06:10:41;6.50;;;5.80;;
23730;SDS011;12046;44.702;10.622;2024-03-23T06:13:06;7.38;;;6.00;;
23730;SDS011;12046;44.702;10.622;2024-03-23T06:15:33;6.28;;;5.68;;
23730;SDS011;12046;44.702;10.622;2024-03-23T06:18:03;5.47;;;4.90;;
23730;SDS011;12046;44.702;10.622;2024-03-23T06:20:30;7.43;;;6.05;;
23730;SDS011;12046;44.702;10.622;2024-03-23T06:22:56;6.85;;;6.25;;
23730;SDS011;12046;44.702;10.622;2024-03-23T06:25:22;6.15;;;5.43;;
23730;SDS011;12046;44.702;10.622;2024-03-23T06:27:47;8.00;;;6.45;;
23730;SDS011;12046;44.702;10.622;2024-03-23T06:30:13;7.10;;;5.93;;
23730;SDS011;12046;44.702;10.622;2024-03-23T06:32:39;9.77;;;6.40;;
23730;SDS011;12046;44.702;10.622;2024-03-23T06:35:05;6.82;;;6.15;;
23730;SDS011;12046;44.702;10.622;2024-03-23T06:37:34;6.10;;;5.50;;
23730;SDS011;12046;44.702;10.622;2024-03-23T06:40:00;5.82;;;5.22;;
23730;SDS011;12046;44.702;10.622;2024-03-23T06:42:26;6.30;;;5.63;;
23730;SDS011;12046;44.702;10.622;2024-03-23T06:44:52;7.40;;;5.80;;
23730;SDS011;12046;44.702;10.622;2024-03-23T06:47:17;6.68;;;5.97;;
23730;SDS011;12046;44.702;10.622;2024-03-23T06:49:43;6.32;;;5.72;;
23730;SDS011;12046;44.702;10.622;2024-03-23T06:52:09;6.97;;;6.30;;
23730;SDS011;12046;44.702;10.622;2024-03-23T06:54:35;5.72;;;5.22;;
23730;SDS011;12046;44.702;10.622;2024-03-23T06:57:00;5.03;;;4.60;;
23730;SDS011;12046;44.702;10.622;2024-03-23T06:59:26;5.47;;;4.97;;
23730;SDS011;12046;44.702;10.622;2024-03-23T07:01:53;4.88;;;4.47;;
23730;SDS011;12046;44.702;10.622;2024-03-23T07:04:18;5.70;;;5.10;;
23730;SDS011;12046;44.702;10.622;2024-03-23T07:06:45;5.50;;;4.70;;
23730;SDS011;12046;44.702;10.622;2024-03-23T07:09:11;4.80;;;4.40;;
23730;SDS011;12046;44.702;10.622;2024-03-23T07:11:37;5.75;;;4.40;;
23730;SDS011;12046;44.702;10.622;2024-03-23T07:14:03;4.85;;;4.45;;
23730;SDS011;12046;44.702;10.622;2024-03-23T07:26:42;6.25;;;5.65;;
23730;SDS011;12046;44.702;10.622;2024-03-23T07:29:09;8.25;;;5.20;;
23730;SDS011;12046;44.702;10.622;2024-03-23T07:31:35;6.43;;;5.75;;
23730;SDS011;12046;44.702;10.622;2024-03-23T07:34:01;6.03;;;5.43;;
23730;SDS011;12046;44.702;10.622;2024-03-23T07:36:28;5.22;;;4.72;;
23730;SDS011;12046;44.702;10.622;2024-03-23T07:38:56;4.70;;;4.30;;
23730;SDS011;12046;44.702;10.622;2024-03-23T07:41:22;4.82;;;4.43;;
23730;SDS011;12046;44.702;10.622;2024-03-23T07:43:48;4.72;;;4.20;;
23730;SDS011;12046;44.702;10.622;2024-03-23T07:46:15;4.10;;;3.80;;
23730;SDS011;12046;44.702;10.622;2024-03-23T07:48:41;5.95;;;5.35;;
23730;SDS011;12046;44.702;10.622;2024-03-23T07:51:26;5.75;;;4.90;;
23730;SDS011;12046;44.702;10.622;2024-03-23T07:53:51;5.53;;;4.30;;
23730;SDS011;12046;44.702;10.622;2024-03-23T07:56:19;3.90;;;3.60;;
23730;SDS011;12046;44.702;10.622;2024-03-23T07:58:46;4.60;;;4.00;;
23730;SDS011;12046;44.702;10.622;2024-03-23T08:01:12;4.68;;;3.90;;
23730;SDS011;12046;44.702;10.622;2024-03-23T08:03:40;5.00;;;4.47;;
23730;SDS011;12046;44.702;10.622;2024-03-23T08:06:11;5.05;;;4.45;;
23730;SDS011;12046;44.702;10.622;2024-03-23T08:08:39;4.70;;;4.30;;
23730;SDS011;12046;44.702;10.622;2024-03-23T08:11:05;4.55;;;4.15;;
23730;SDS011;12046;44.702;10.622;2024-03-23T08:13:32;4.53;;;4.05;;
23730;SDS011;12046;44.702;10.622;2024-03-23T08:16:01;6.20;;;4.90;;
23730;SDS011;12046;44.702;10.622;2024-03-23T08:18:27;3.83;;;3.53;;
23730;SDS011;12046;44.702;10.622;2024-03-23T08:23:21;3.47;;;3.05;;
23730;SDS011;12046;44.702;10.622;2024-03-23T08:25:47;3.95;;;3.15;;
23730;SDS011;12046;44.702;10.622;2024-03-23T08:28:13;3.38;;;3.10;;
23730;SDS011;12046;44.702;10.622;2024-03-23T08:43:37;2.50;;;2.30;;
23730;SDS011;12046;44.702;10.622;2024-03-23T08:46:06;2.60;;;2.40;;
23730;SDS011;12046;44.702;10.622;2024-03-23T08:48:54;4.47;;;2.58;;
23730;SDS011;12046;44.702;10.622;2024-03-23T08:51:19;2.63;;;2.15;;
23730;SDS011;12046;44.702;10.622;2024-03-23T08:53:45;2.95;;;2.55;;
23730;SDS011;12046;44.702;10.622;2024-03-23T08:56:12;3.05;;;2.22;;
23730;SDS011;12046;44.702;10.622;2024-03-23T08:58:38;2.47;;;2.28;;
23730;SDS011;12046;44.702;10.622;2024-03-23T09:01:05;3.05;;;2.80;;
23730;SDS011;12046;44.702;10.622;2024-03-23T09:03:32;3.72;;;3.13;;
23730;SDS011;12046;44.702;10.622;2024-03-23T09:05:58;2.65;;;2.45;;
23730;SDS011;12046;44.702;10.622;2024-03-23T09:08:24;2.60;;;2.40;;
23730;SDS011;12046;44.702;10.622;2024-03-23T09:10:52;4.03;;;3.60;;
23730;SDS011;12046;44.702;10.622;2024-03-23T09:13:18;3.70;;;3.38;;
23730;SDS011;12046;44.702;10.622;2024-03-23T09:15:48;4.55;;;3.50;;
23730;SDS011;12046;44.702;10.622;2024-03-23T09:18:14;3.70;;;3.40;;
23730;SDS011;12046;44.702;10.622;2024-03-23T09:20:43;3.33;;;3.03;;
23730;SDS011;12046;44.702;10.622;2024-03-23T09:23:12;3.40;;;3.10;;
23730;SDS011;12046;44.702;10.622;2024-03-23T09:25:39;5.00;;;3.50;;
23730;SDS011;12046;44.702;10.622;2024-03-23T09:28:06;3.83;;;3.53;;
23730;SDS011;12046;44.702;10.622;2024-03-23T09:30:52;3.78;;;3.47;;
23730;SDS011;12046;44.702;10.622;2024-03-23T09:33:18;3.63;;;3.33;;
23730;SDS011;12046;44.702;10.622;2024-03-23T09:35:48;2.67;;;2.47;;
23730;SDS011;12046;44.702;10.622;2024-03-23T09:38:27;3.90;;;3.60;;
23730;SDS011;12046;44.702;10.622;2024-03-23T09:40:53;4.30;;;2.97;;
23730;SDS011;12046;44.702;10.622;2024-03-23T09:46:11;3.75;;;3.30;;
23730;SDS011;12046;44.702;10.622;2024-03-23T09:48:37;4.95;;;3.22;;
23730;SDS011;12046;44.702;10.622;2024-03-23T09:51:03;3.25;;;2.60;;
23730;SDS011;12046;44.702;10.622;2024-03-23T09:53:30;3.63;;;2.83;;
23730;SDS011;12046;44.702;10.622;2024-03-23T09:55:58;2.92;;;2.63;;
23730;SDS011;12046;44.702;10.622;2024-03-23T09:58:26;3.60;;;2.17;;
23730;SDS011;12046;44.702;10.622;2024-03-23T10:00:52;4.90;;;3.85;;
23730;SDS011;12046;44.702;10.622;2024-03-23T10:03:25;1.83;;;1.73;;
23730;SDS011;12046;44.702;10.622;2024-03-23T10:06:00;2.15;;;1.75;;
23730;SDS011;12046;44.702;10.622;2024-03-23T10:08:27;3.50;;;1.77;;
23730;SDS011;12046;44.702;10.622;2024-03-23T10:10:57;2.80;;;1.70;;
23730;SDS011;12046;44.702;10.622;2024-03-23T10:13:23;2.63;;;2.40;;
23730;SDS011;12046;44.702;10.622;2024-03-23T10:15:54;5.30;;;2.83;;
23730;SDS011;12046;44.702;10.622;2024-03-23T10:18:21;3.50;;;3.20;;
23730;SDS011;12046;44.702;10.622;2024-03-23T10:20:50;3.72;;;3.42;;
23730;SDS011;12046;44.702;10.622;2024-03-23T10:23:16;7.20;;;3.85;;
23730;SDS011;12046;44.702;10.622;2024-03-23T10:25:48;4.57;;;4.10;;
23730;SDS011;12046;44.702;10.622;2024-03-23T10:28:13;4.75;;;4.35;;
23730;SDS011;12046;44.702;10.622;2024-03-23T10:30:39;5.05;;;4.13;;
23730;SDS011;12046;44.702;10.622;2024-03-23T10:33:11;4.40;;;4.00;;
23730;SDS011;12046;44.702;10.622;2024-03-23T10:35:37;5.50;;;5.00;;
23730;SDS011;12046;44.702;10.622;2024-03-23T10:38:06;5.82;;;5.15;;
23730;SDS011;12046;44.702;10.622;2024-03-23T10:40:35;5.55;;;5.05;;
23730;SDS011;12046;44.702;10.622;2024-03-23T10:43:02;6.22;;;4.68;;
23730;SDS011;12046;44.702;10.622;2024-03-23T10:45:28;6.03;;;4.82;;
23730;SDS011;12046;44.702;10.622;2024-03-23T10:47:54;5.30;;;4.80;;
23730;SDS011;12046;44.702;10.622;2024-03-23T10:50:20;5.35;;;4.85;;
23730;SDS011;12046;44.702;10.622;2024-03-23T10:52:47;7.35;;;5.65;;
23730;SDS011;12046;44.702;10.622;2024-03-23T10:55:16;6.80;;;6.03;;
23730;SDS011;12046;44.702;10.622;2024-03-23T10:57:44;7.47;;;5.68;;
23730;SDS011;12046;44.702;10.622;2024-03-23T11:00:11;6.82;;;6.20;;
23730;SDS011;12046;44.702;10.622;2024-03-23T11:02:37;7.90;;;7.25;;
23730;SDS011;12046;44.702;10.622;2024-03-23T11:05:27;9.15;;;8.25;;
23730;SDS011;12046;44.702;10.622;2024-03-23T11:07:52;8.80;;;7.97;;
23730;SDS011;12046;44.702;10.622;2024-03-23T11:10:26;7.63;;;6.97;;
23730;SDS011;12046;44.702;10.622;2024-03-23T11:12:53;10.05;;;9.02;;
23730;SDS011;12046;44.702;10.622;2024-03-23T11:15:18;10.52;;;9.52;;
23730;SDS011;12046;44.702;10.622;2024-03-23T11:20:43;10.77;;;9.77;;
23730;SDS011;12046;44.702;10.622;2024-03-23T11:23:08;9.70;;;8.80;;
23730;SDS011;12046;44.702;10.622;2024-03-23T11:25:52;9.73;;;8.73;;
23730;SDS011;12046;44.702;10.622;2024-03-23T11:28:17;9.70;;;8.70;;
23730;SDS011;12046;44.702;10.622;2024-03-23T11:30:43;8.88;;;8.05;;
23730;SDS011;12046;44.702;10.622;2024-03-23T11:33:09;9.15;;;8.07;;
23730;SDS011;12046;44.702;10.622;2024-03-23T11:35:38;10.65;;;9.55;;
23730;SDS011;12046;44.702;10.622;2024-03-23T11:38:14;10.98;;;9.82;;
23730;SDS011;12046;44.702;10.622;2024-03-23T11:43:26;9.52;;;8.52;;
23730;SDS011;12046;44.702;10.622;2024-03-23T11:45:52;15.38;;;13.77;;
23730;SDS011;12046;44.702;10.622;2024-03-23T11:48:20;14.05;;;12.65;;
23730;SDS011;12046;44.702;10.622;2024-03-23T11:50:56;10.98;;;9.90;;
23730;SDS011;12046;44.702;10.622;2024-03-23T11:53:23;13.95;;;12.48;;
23730;SDS011;12046;44.702;10.622;2024-03-23T11:55:56;9.68;;;8.77;;
23730;SDS011;12046;44.702;10.622;2024-03-23T11:58:23;11.75;;;10.55;;
23730;SDS011;12046;44.702;10.622;2024-03-23T12:01:09;12.43;;;11.23;;
23730;SDS011;12046;44.702;10.622;2024-03-23T12:03:35;11.25;;;10.15;;
23730;SDS011;12046;44.702;10.622;2024-03-23T12:06:02;9.45;;;8.55;;
23730;SDS011;12046;44.702;10.622;2024-03-23T12:13:39;7.43;;;6.72;;
23730;SDS011;12046;44.702;10.622;2024-03-23T12:16:13;8.25;;;7.45;;
23730;SDS011;12046;44.702;10.622;2024-03-23T12:18:42;7.30;;;6.60;;
23730;SDS011;12046;44.702;10.622;2024-03-23T12:21:11;6.68;;;5.97;;
23730;SDS011;12046;44.702;10.622;2024-03-23T12:23:48;6.47;;;5.78;;
23730;SDS011;12046;44.702;10.622;2024-03-23T12:26:15;6.35;;;5.30;;
23730;SDS011;12046;44.702;10.622;2024-03-23T12:28:43;5.25;;;4.60;;
23730;SDS011;12046;44.702;10.622;2024-03-23T12:31:10;5.10;;;4.45;;
23730;SDS011;12046;44.702;10.622;2024-03-23T12:33:35;4.88;;;4.38;;
23730;SDS011;12046;44.702;10.622;2024-03-23T12:36:01;4.90;;;4.40;;
23730;SDS011;12046;44.702;10.622;2024-03-23T12:38:27;4.18;;;3.47;;
23730;SDS011;12046;44.702;10.622;2024-03-23T12:40:53;4.13;;;2.72;;
23730;SDS011;12046;44.702;10.622;2024-03-23T12:43:18;3.80;;;2.55;;
23730;SDS011;12046;44.702;10.622;2024-03-23T12:45:48;8.27;;;4.40;;
23730;SDS011;12046;44.702;10.622;2024-03-23T12:48:14;6.07;;;5.38;;
23730;SDS011;12046;44.702;10.622;2024-03-23T12:50:39;6.72;;;5.07;;
23730;SDS011;12046;44.702;10.622;2024-03-23T12:53:05;6.68;;;5.38;;
23730;SDS011;12046;44.702;10.622;2024-03-23T12:55:31;6.65;;;5.13;;
23730;SDS011;12046;44.702;10.622;2024-03-23T12:57:58;6.90;;;6.20;;
23730;SDS011;12046;44.702;10.622;2024-03-23T13:00:23;5.25;;;4.72;;
23730;SDS011;12046;44.702;10.622;2024-03-23T13:02:49;6.63;;;5.18;;
23730;SDS011;12046;44.702;10.622;2024-03-23T13:05:15;4.50;;;4.10;;
23730;SDS011;12046;44.702;10.622;2024-03-23T13:07:40;6.93;;;4.95;;
23730;SDS011;12046;44.702;10.622;2024-03-23T13:10:06;5.10;;;4.07;;
23730;SDS011;12046;44.702;10.622;2024-03-23T13:12:33;3.78;;;3.17;;
23730;SDS011;12046;44.702;10.622;2024-03-23T13:14:59;2.85;;;2.25;;
23730;SDS011;12046;44.702;10.622;2024-03-23T13:17:25;3.58;;;3.28;;
23730;SDS011;12046;44.702;10.622;2024-03-23T13:19:53;4.57;;;3.08;;
23730;SDS011;12046;44.702;10.622;2024-03-23T13:22:18;4.88;;;3.63;;
23730;SDS011;12046;44.702;10.622;2024-03-23T13:24:48;5.05;;;3.78;;
23730;SDS011;12046;44.702;10.622;2024-03-23T13:27:13;3.85;;;2.00;;
23730;SDS011;12046;44.702;10.622;2024-03-23T13:29:39;2.72;;;1.45;;
23730;SDS011;12046;44.702;10.622;2024-03-23T13:32:05;1.60;;;1.17;;
23730;SDS011;12046;44.702;10.622;2024-03-23T13:34:33;3.88;;;1.15;;
23730;SDS011;12046;44.702;10.622;2024-03-23T13:37:00;1.17;;;0.93;;
23730;SDS011;12046;44.702;10.622;2024-03-23T13:39:27;3.90;;;1.00;;
23730;SDS011;12046;44.702;10.622;2024-03-23T13:41:53;2.38;;;1.10;;
23730;SDS011;12046;44.702;10.622;2024-03-23T13:44:20;4.30;;;0.95;;
23730;SDS011;12046;44.702;10.622;2024-03-23T13:46:46;3.70;;;1.15;;
23730;SDS011;12046;44.702;10.622;2024-03-23T13:49:24;2.95;;;1.08;;
23730;SDS011;12046;44.702;10.622;2024-03-23T13:51:50;3.17;;;1.05;;
23730;SDS011;12046;44.702;10.622;2024-03-23T13:54:16;2.67;;;0.90;;
23730;SDS011;12046;44.702;10.622;2024-03-23T13:56:42;4.20;;;1.00;;
23730;SDS011;12046;44.702;10.622;2024-03-23T13:59:07;1.10;;;1.00;;
23730;SDS011;12046;44.702;10.622;2024-03-23T14:01:33;2.78;;;0.98;;
23730;SDS011;12046;44.702;10.622;2024-03-23T14:03:59;1.67;;;1.02;;
23730;SDS011;12046;44.702;10.622;2024-03-23T14:06:25;3.42;;;1.30;;
23730;SDS011;12046;44.702;10.622;2024-03-23T14:08:51;4.85;;;1.20;;
23730;SDS011;12046;44.702;10.622;2024-03-23T14:11:17;4.97;;;1.58;;
23730;SDS011;12046;44.702;10.622;2024-03-23T14:13:44;3.13;;;1.30;;
23730;SDS011;12046;44.702;10.622;2024-03-23T14:16:10;2.67;;;1.13;;
23730;SDS011;12046;44.702;10.622;2024-03-23T14:18:35;3.28;;;1.10;;
23730;SDS011;12046;44.702;10.622;2024-03-23T14:21:01;3.50;;;1.30;;
23730;SDS011;12046;44.702;10.622;2024-03-23T14:23:28;3.63;;;1.20;;
23730;SDS011;12046;44.702;10.622;2024-03-23T14:25:55;2.87;;;1.30;;
23730;SDS011;12046;44.702;10.622;2024-03-23T14:28:22;3.08;;;1.40;;
23730;SDS011;12046;44.702;10.622;2024-03-23T14:30:51;4.10;;;1.52;;
23730;SDS011;12046;44.702;10.622;2024-03-23T14:33:18;2.45;;;1.50;;
23730;SDS011;12046;44.702;10.622;2024-03-23T14:35:51;2.05;;;1.42;;
23730;SDS011;12046;44.702;10.622;2024-03-23T14:40:44;3.97;;;1.33;;
23730;SDS011;12046;44.702;10.622;2024-03-23T14:43:10;2.45;;;1.20;;
23730;SDS011;12046;44.702;10.622;2024-03-23T14:45:36;3.35;;;1.50;;
23730;SDS011;12046;44.702;10.622;2024-03-23T14:48:02;2.13;;;1.20;;
23730;SDS011;12046;44.702;10.622;2024-03-23T14:50:28;1.67;;;1.27;;
23730;SDS011;12046;44.702;10.622;2024-03-23T14:52:54;4.22;;;1.30;;
23730;SDS011;12046;44.702;10.622;2024-03-23T14:55:20;3.25;;;1.15;;
23730;SDS011;12046;44.702;10.622;2024-03-23T14:57:46;2.28;;;1.23;;
23730;SDS011;12046;44.702;10.622;2024-03-23T15:00:12;2.70;;;1.52;;
23730;SDS011;12046;44.702;10.622;2024-03-23T15:02:38;4.65;;;1.27;;
23730;SDS011;12046;44.702;10.622;2024-03-23T15:05:07;3.47;;;1.40;;
23730;SDS011;12046;44.702;10.622;2024-03-23T15:07:36;4.45;;;1.10;;
23730;SDS011;12046;44.702;10.622;2024-03-23T15:10:04;1.75;;;0.93;;
23730;SDS011;12046;44.702;10.622;2024-03-23T15:12:30;3.38;;;1.10;;
23730;SDS011;12046;44.702;10.622;2024-03-23T15:14:58;1.65;;;1.20;;
23730;SDS011;12046;44.702;10.622;2024-03-23T15:17:24;2.47;;;1.05;;
23730;SDS011;12046;44.702;10.622;2024-03-23T15:19:50;1.55;;;1.05;;
23730;SDS011;12046;44.702;10.622;2024-03-23T15:22:16;2.85;;;1.02;;
23730;SDS011;12046;44.702;10.622;2024-03-23T15:24:42;2.00;;;1.13;;
23730;SDS011;12046;44.702;10.622;2024-03-23T15:27:07;1.85;;;1.10;;
23730;SDS011;12046;44.702;10.622;2024-03-23T15:29:34;4.38;;;1.13;;
23730;SDS011;12046;44.702;10.622;2024-03-23T15:32:02;2.55;;;1.13;;
23730;SDS011;12046;44.702;10.622;2024-03-23T15:34:28;4.00;;;1.00;;
23730;SDS011;12046;44.702;10.622;2024-03-23T15:36:54;2.58;;;1.48;;
23730;SDS011;12046;44.702;10.622;2024-03-23T15:39:20;3.28;;;1.10;;
23730;SDS011;12046;44.702;10.622;2024-03-23T15:41:48;3.25;;;0.98;;
23730;SDS011;12046;44.702;10.622;2024-03-23T15:44:13;3.13;;;1.10;;
23730;SDS011;12046;44.702;10.622;2024-03-23T15:46:40;4.70;;;1.10;;
23730;SDS011;12046;44.702;10.622;2024-03-23T15:49:06;4.10;;;1.15;;
23730;SDS011;12046;44.702;10.622;2024-03-23T15:51:32;2.70;;;0.95;;
23730;SDS011;12046;44.702;10.622;2024-03-23T15:54:00;3.58;;;1.00;;
23730;SDS011;12046;44.702;10.622;2024-03-23T15:56:26;3.35;;;1.10;;
23730;SDS011;12046;44.702;10.622;2024-03-23T15:58:52;4.00;;;1.20;;
23730;SDS011;12046;44.702;10.622;2024-03-23T16:01:18;2.47;;;1.00;;
23730;SDS011;12046;44.702;10.622;2024-03-23T16:03:43;1.55;;;1.00;;
23730;SDS011;12046;44.702;10.622;2024-03-23T16:06:09;2.47;;;1.10;;